Terminal Aerodrome Forecast
Issued by NWS North Platte, NE

Home | Current Version | Previous Version | Text Only | Print | Product List | Glossary On
Versions: 1 2 3 4 5 6 7 8 9 10 11 12 13 14 15 16 17 18 19
000
FTUS43 KLBF 041026 AAB
TAFLBF
TAF AMD
KLBF 041026Z 0410/0506 VRB03KT P6SM BKN012
      TEMPO 0410/0414 3/4SM BR OVC002
     FM041600 15010KT P6SM SCT012 BKN070
     FM042100 17007KT P6SM BKN080 PROB30 0421/0503 3SM +TSRA
      OVC030CB=

USA.gov is the U.S. government's official web portal to all federal, state and local government web resources and services.